Time;durP1;ratioP1;P1;durP2;ratioP2;P2;SDS_P1;SDS_P2;PMS_P1;PMS_P2;Temp;Humidity;BMP_temperature;BMP_pressure;BME280_temperature;BME280_humidity;BME280_pressure;Samples;Min_cycle;Max_cycle;Signal;HPM_P1;HPM_P2
2022/03/31 00:01:03;;;;;;;9.98;1.75;;;3.10;99.90;;;;;;5051531;28;20075;-33
2022/03/31 00:03:29;;;;;;;8.00;2.00;;;3.10;99.90;;;;;;5050915;28;20053;-33
2022/03/31 00:05:56;;;;;;;10.05;1.65;;;3.10;99.90;;;;;;5050841;28;20045;-33
2022/03/31 00:08:23;;;;;;;4.20;1.60;;;3.10;99.90;;;;;;5042641;28;20046;-33
2022/03/31 00:10:52;;;;;;;3.13;1.20;;;3.10;99.90;;;;;;5043291;28;20057;-33
2022/03/31 00:13:19;;;;;;;7.72;1.50;;;3.10;99.90;;;;;;5046205;28;20057;-33
2022/03/31 00:15:47;;;;;;;4.82;1.40;;;3.10;99.90;;;;;;5042027;28;20292;-33
2022/03/31 00:18:16;;;;;;;4.63;1.55;;;3.10;99.90;;;;;;5055119;28;20063;-36
2022/03/31 00:24:07;;;;;;;6.07;1.52;;;3.10;99.90;;;;;;5045842;28;20088;-33
2022/03/31 00:26:34;;;;;;;7.20;1.67;;;3.10;99.90;;;;;;5054918;28;20049;-33
2022/03/31 00:29:01;;;;;;;8.10;1.52;;;3.10;99.90;;;;;;5053756;28;20485;-34
2022/03/31 00:31:28;;;;;;;5.10;1.50;;;3.20;99.90;;;;;;5055270;28;20106;-34
2022/03/31 00:33:56;;;;;;;8.05;1.95;;;3.20;99.90;;;;;;5054439;28;20045;-34
2022/03/31 00:36:22;;;;;;;7.53;1.90;;;3.20;99.90;;;;;;5051391;28;20123;-34
2022/03/31 00:41:34;;;;;;;4.72;1.58;;;3.20;99.90;;;;;;5048620;28;20053;-32
2022/03/31 00:44:01;;;;;;;5.80;1.65;;;3.20;99.90;;;;;;5036367;28;20049;-33
2022/03/31 00:46:28;;;;;;;11.23;2.17;;;3.20;99.90;;;;;;5037630;28;20045;-34
2022/03/31 00:48:57;;;;;;;7.97;1.73;;;3.20;99.90;;;;;;5039321;28;20041;-33
2022/03/31 00:51:24;;;;;;;8.40;1.67;;;3.20;99.90;;;;;;5045127;28;20064;-33
2022/03/31 00:53:52;;;;;;;4.53;1.90;;;3.10;99.90;;;;;;5055422;28;20065;-34
2022/03/31 00:56:19;;;;;;;10.65;1.60;;;3.10;99.90;;;;;;5039928;28;20049;-34
2022/03/31 00:58:46;;;;;;;10.25;2.10;;;3.10;99.90;;;;;;5048450;28;20045;-34
2022/03/31 01:01:13;;;;;;;8.23;1.67;;;3.10;99.90;;;;;;5054543;28;20524;-34
2022/03/31 01:03:40;;;;;;;7.85;1.88;;;3.10;99.90;;;;;;5054419;28;20048;-34
2022/03/31 01:06:08;;;;;;;8.00;1.90;;;3.20;99.90;;;;;;5047017;28;20059;-34
2022/03/31 01:08:35;;;;;;;6.60;1.50;;;3.20;99.90;;;;;;5054174;28;20060;-34
2022/03/31 01:11:02;;;;;;;4.18;1.70;;;3.20;99.90;;;;;;5040191;28;20523;-34
2022/03/31 01:13:29;;;;;;;7.57;2.08;;;3.20;99.90;;;;;;5054146;28;20041;-35
2022/03/31 01:15:56;;;;;;;4.15;1.60;;;3.20;99.90;;;;;;5054302;28;20045;-34
2022/03/31 01:18:23;;;;;;;8.98;2.10;;;3.20;99.90;;;;;;5055180;28;20053;-34
2022/03/31 01:20:50;;;;;;;5.85;1.95;;;3.20;99.90;;;;;;5052868;28;20049;-35
2022/03/31 01:23:18;;;;;;;6.80;1.85;;;3.20;99.90;;;;;;5052247;28;20144;-34
2022/03/31 01:25:45;;;;;;;9.43;1.77;;;3.20;99.90;;;;;;5042662;28;20049;-34
2022/03/31 01:28:12;;;;;;;2.47;1.63;;;3.20;99.90;;;;;;5042137;28;20049;-34
2022/03/31 01:30:39;;;;;;;5.45;1.70;;;3.20;99.90;;;;;;5054597;28;20048;-34
2022/03/31 01:33:06;;;;;;;5.53;2.03;;;3.20;99.90;;;;;;5048978;28;20485;-34
2022/03/31 01:35:33;;;;;;;6.60;1.70;;;3.20;99.90;;;;;;5043718;28;20484;-33
2022/03/31 01:38:00;;;;;;;10.23;1.90;;;3.20;99.90;;;;;;5046212;28;20493;-33
2022/03/31 01:40:28;;;;;;;3.60;1.45;;;3.20;99.90;;;;;;5040509;28;20494;-34
2022/03/31 01:42:56;;;;;;;8.73;2.17;;;3.20;99.90;;;;;;5053504;28;20052;-33
2022/03/31 01:45:23;;;;;;;5.40;1.83;;;3.20;99.90;;;;;;5049369;28;20036;-33
2022/03/31 01:47:50;;;;;;;5.55;1.70;;;3.20;99.90;;;;;;5053680;28;20057;-33
2022/03/31 01:50:17;;;;;;;6.22;1.83;;;3.20;99.90;;;;;;5051960;28;20049;-34
2022/03/31 01:52:44;;;;;;;4.47;1.77;;;3.20;99.90;;;;;;5036480;28;20048;-35
2022/03/31 01:55:11;;;;;;;6.80;1.88;;;3.20;99.90;;;;;;5048388;28;20089;-34
2022/03/31 01:57:40;;;;;;;5.07;1.80;;;3.20;99.90;;;;;;5050958;28;20045;-34
2022/03/31 02:00:08;;;;;;;8.98;1.67;;;3.20;99.90;;;;;;5053042;28;20057;-34
2022/03/31 02:02:35;;;;;;;2.90;1.77;;;3.20;99.90;;;;;;5054169;28;20048;-34
2022/03/31 02:05:02;;;;;;;5.68;2.20;;;3.10;99.90;;;;;;5049743;28;20056;-35
2022/03/31 02:07:29;;;;;;;7.05;1.80;;;3.10;99.90;;;;;;5044260;28;20535;-35
2022/03/31 02:09:56;;;;;;;6.45;1.75;;;3.10;99.90;;;;;;5054331;28;20059;-34
2022/03/31 02:12:22;;;;;;;7.68;2.00;;;3.10;99.90;;;;;;5050541;28;20041;-35
2022/03/31 02:14:51;;;;;;;6.30;1.80;;;3.10;99.90;;;;;;5049839;28;20041;-35
2022/03/31 02:17:18;;;;;;;7.90;1.98;;;3.00;99.90;;;;;;5044338;28;20077;-35
2022/03/31 02:19:45;;;;;;;5.50;1.70;;;3.00;99.90;;;;;;5043008;28;20045;-35
2022/03/31 02:22:12;;;;;;;6.35;2.13;;;3.00;99.90;;;;;;5034561;28;20053;-35
2022/03/31 02:24:39;;;;;;;5.72;1.80;;;3.00;99.90;;;;;;5039544;28;20045;-34
2022/03/31 02:27:06;;;;;;;5.03;2.20;;;3.00;99.90;;;;;;5053981;28;20049;-34
2022/03/31 02:29:33;;;;;;;9.07;2.47;;;3.00;99.90;;;;;;5052280;28;20044;-33
2022/03/31 02:32:01;;;;;;;6.55;2.10;;;2.90;99.90;;;;;;5050951;28;20059;-33
2022/03/31 02:34:28;;;;;;;7.38;2.40;;;2.90;99.90;;;;;;5048603;28;20045;-33
2022/03/31 02:36:54;;;;;;;9.27;2.92;;;2.90;99.90;;;;;;5046993;28;20049;-34
2022/03/31 02:39:21;;;;;;;7.65;2.15;;;2.90;99.90;;;;;;5052899;28;20052;-34
2022/03/31 02:41:48;;;;;;;3.45;2.42;;;2.90;99.90;;;;;;5053641;28;20041;-34
2022/03/31 02:44:15;;;;;;;6.93;2.42;;;3.00;99.90;;;;;;5050906;28;20085;-35
2022/03/31 02:46:42;;;;;;;9.93;3.28;;;2.90;99.90;;;;;;5034189;28;20061;-34
2022/03/31 02:49:10;;;;;;;10.95;3.28;;;2.90;99.90;;;;;;5044267;28;20049;-34
2022/03/31 02:51:37;;;;;;;14.93;3.28;;;2.90;99.90;;;;;;5041104;28;20386;-35
2022/03/31 02:56:48;;;;;;;5.53;2.85;;;2.90;99.90;;;;;;5051989;28;20052;-34
2022/03/31 02:59:15;;;;;;;4.50;3.03;;;2.90;99.90;;;;;;5048598;28;20045;-35
2022/03/31 03:01:43;;;;;;;9.32;3.40;;;2.90;99.90;;;;;;5039707;28;20053;-35
2022/03/31 03:04:11;;;;;;;8.40;3.53;;;2.90;99.90;;;;;;5042849;28;20497;-35
2022/03/31 03:06:38;;;;;;;8.40;3.40;;;2.80;99.90;;;;;;5045299;28;20049;-35
2022/03/31 03:09:05;;;;;;;10.93;3.97;;;2.90;99.90;;;;;;5053276;28;20059;-33
2022/03/31 03:11:31;;;;;;;10.02;4.22;;;2.80;99.90;;;;;;5037928;28;20736;-33
2022/03/31 03:13:58;;;;;;;10.38;3.88;;;2.80;99.90;;;;;;5051659;28;20049;-33
2022/03/31 03:16:25;;;;;;;7.82;4.13;;;2.80;99.90;;;;;;5045945;28;20056;-33
2022/03/31 03:18:52;;;;;;;10.82;4.20;;;2.90;99.90;;;;;;5040996;28;20405;-33
2022/03/31 03:21:20;;;;;;;12.57;5.07;;;2.90;99.90;;;;;;5045984;28;20604;-33
2022/03/31 03:23:48;;;;;;;10.45;5.45;;;2.90;99.90;;;;;;5052525;28;20053;-33
2022/03/31 03:26:15;;;;;;;15.35;6.00;;;2.90;99.90;;;;;;5051292;28;20110;-33
2022/03/31 03:28:42;;;;;;;14.45;6.43;;;2.90;99.90;;;;;;5036596;28;20072;-33
2022/03/31 03:31:09;;;;;;;10.55;5.90;;;2.90;99.90;;;;;;5042690;28;20487;-33
2022/03/31 03:33:35;;;;;;;12.32;7.30;;;2.90;99.90;;;;;;5052476;28;20285;-33
2022/03/31 03:36:04;;;;;;;12.88;6.65;;;2.90;99.90;;;;;;5048496;28;20481;-33
2022/03/31 03:38:32;;;;;;;12.68;6.80;;;2.90;99.90;;;;;;5047627;28;20483;-33
2022/03/31 03:40:59;;;;;;;14.45;7.68;;;2.90;99.90;;;;;;5039749;28;20063;-34
2022/03/31 03:43:26;;;;;;;16.98;8.45;;;3.00;99.90;;;;;;5044106;28;20060;-34
2022/03/31 03:45:53;;;;;;;15.07;8.20;;;2.90;99.90;;;;;;5041659;28;20574;-34
2022/03/31 03:48:20;;;;;;;12.20;9.25;;;2.90;99.90;;;;;;5043251;28;20132;-34
2022/03/31 03:50:47;;;;;;;23.80;10.75;;;3.00;99.90;;;;;;5049514;28;20051;-34
2022/03/31 03:53:14;;;;;;;17.63;9.93;;;2.90;99.90;;;;;;5051204;28;20227;-34
2022/03/31 03:55:42;;;;;;;14.63;10.25;;;2.90;99.90;;;;;;5043393;28;20056;-34
2022/03/31 03:58:08;;;;;;;18.52;10.63;;;3.00;99.90;;;;;;5032709;28;20057;-34
2022/03/31 04:00:35;;;;;;;17.63;11.20;;;2.90;99.90;;;;;;5049702;28;20135;-34
2022/03/31 04:03:02;;;;;;;19.90;11.60;;;3.00;99.90;;;;;;5051440;28;20124;-34
2022/03/31 04:05:29;;;;;;;19.90;12.75;;;3.00;99.90;;;;;;5041952;28;20052;-34
2022/03/31 04:07:56;;;;;;;16.33;12.45;;;3.00;99.90;;;;;;5050606;28;20095;-34
2022/03/31 04:10:22;;;;;;;14.40;11.98;;;3.00;99.90;;;;;;5045604;28;20128;-34
2022/03/31 04:12:50;;;;;;;15.32;11.82;;;3.00;99.90;;;;;;5044653;28;20128;-35
2022/03/31 04:15:17;;;;;;;13.57;11.20;;;3.00;99.90;;;;;;5050835;28;20055;-35
2022/03/31 04:17:44;;;;;;;17.35;11.88;;;3.00;99.90;;;;;;5052069;28;20047;-35
2022/03/31 04:20:12;;;;;;;15.02;10.88;;;3.00;99.90;;;;;;5050001;28;20049;-35
2022/03/31 04:22:39;;;;;;;14.98;10.82;;;3.00;99.90;;;;;;5050084;28;20092;-35
2022/03/31 04:25:07;;;;;;;16.13;10.70;;;3.00;99.90;;;;;;5044716;28;20057;-35
2022/03/31 04:27:34;;;;;;;13.13;10.02;;;2.90;99.90;;;;;;5050489;28;20059;-34
2022/03/31 04:30:03;;;;;;;17.23;11.63;;;2.90;99.90;;;;;;5055469;28;20081;-33
2022/03/31 04:32:30;;;;;;;11.40;9.80;;;3.00;99.90;;;;;;5049953;28;20053;-32
2022/03/31 04:34:56;;;;;;;14.25;10.55;;;2.90;99.90;;;;;;5049182;28;20045;-34
2022/03/31 04:37:23;;;;;;;16.92;10.35;;;2.90;99.90;;;;;;5050161;28;20060;-34
2022/03/31 04:39:50;;;;;;;12.20;9.65;;;2.90;99.90;;;;;;5051379;28;20041;-35
2022/03/31 04:42:16;;;;;;;12.95;9.27;;;2.90;99.90;;;;;;5050687;28;20060;-34
2022/03/31 04:44:43;;;;;;;12.95;10.13;;;2.90;99.90;;;;;;5051104;28;20408;-34
2022/03/31 04:47:12;;;;;;;13.05;10.02;;;2.90;99.90;;;;;;5048081;28;20037;-34
2022/03/31 04:49:39;;;;;;;12.15;9.50;;;2.80;99.90;;;;;;5046968;28;20052;-34
2022/03/31 04:52:07;;;;;;;13.18;10.40;;;2.80;99.90;;;;;;5043838;28;20049;-34
2022/03/31 04:54:33;;;;;;;12.40;10.38;;;2.80;99.90;;;;;;5051119;28;20140;-34
2022/03/31 04:57:00;;;;;;;13.73;10.40;;;2.80;99.90;;;;;;5050361;28;20049;-34
2022/03/31 04:59:27;;;;;;;12.35;9.98;;;2.70;99.90;;;;;;5044477;28;20047;-34
2022/03/31 05:01:53;;;;;;;14.23;10.75;;;2.70;99.90;;;;;;5048684;28;20049;-34
2022/03/31 05:04:21;;;;;;;13.40;9.80;;;2.70;99.90;;;;;;5040727;28;20470;-34
2022/03/31 05:06:48;;;;;;;15.02;10.43;;;2.70;99.90;;;;;;5043482;28;20044;-34
2022/03/31 05:09:15;;;;;;;13.13;10.57;;;2.70;99.90;;;;;;5047860;28;20053;-33
2022/03/31 05:11:41;;;;;;;13.35;10.63;;;2.70;99.90;;;;;;5043532;28;20040;-34
2022/03/31 05:14:08;;;;;;;13.15;10.30;;;2.70;99.90;;;;;;5048297;28;20049;-34
2022/03/31 05:16:35;;;;;;;12.50;9.90;;;2.70;99.90;;;;;;5054344;28;20053;-33
2022/03/31 05:19:02;;;;;;;14.27;10.60;;;2.70;99.90;;;;;;5054902;28;20509;-34
2022/03/31 05:21:30;;;;;;;15.85;11.40;;;2.70;99.90;;;;;;5053452;28;20106;-34
2022/03/31 05:23:57;;;;;;;12.27;9.45;;;2.70;99.90;;;;;;5053767;28;20060;-34
2022/03/31 05:26:23;;;;;;;16.00;9.65;;;2.80;99.90;;;;;;5043598;28;20512;-34
2022/03/31 05:28:50;;;;;;;12.63;9.07;;;2.80;99.90;;;;;;5043505;28;20045;-33
2022/03/31 05:31:17;;;;;;;10.50;8.80;;;2.70;99.90;;;;;;5035188;28;20056;-34
2022/03/31 05:33:43;;;;;;;12.02;8.73;;;2.70;99.90;;;;;;5035310;28;20060;-34
2022/03/31 05:36:10;;;;;;;13.85;9.10;;;2.80;99.90;;;;;;5035078;28;20474;-34
2022/03/31 05:38:38;;;;;;;10.95;8.98;;;2.70;99.90;;;;;;5034862;28;20049;-34
2022/03/31 05:41:05;;;;;;;10.93;9.18;;;2.70;99.90;;;;;;5035066;28;20056;-34
2022/03/31 05:43:31;;;;;;;10.55;9.18;;;2.70;99.90;;;;;;5034555;28;20432;-34
2022/03/31 05:45:58;;;;;;;11.98;9.68;;;2.70;99.90;;;;;;5034044;28;20049;-34
2022/03/31 05:48:25;;;;;;;10.10;8.90;;;2.70;99.90;;;;;;5034824;28;20050;-33
2022/03/31 05:50:51;;;;;;;11.98;9.45;;;2.70;99.90;;;;;;5034950;28;20065;-33
2022/03/31 05:53:18;;;;;;;10.77;9.27;;;2.70;99.90;;;;;;5034821;28;20398;-33
2022/03/31 05:55:46;;;;;;;11.02;9.43;;;2.70;99.90;;;;;;5034663;28;20084;-33
2022/03/31 05:58:13;;;;;;;14.95;11.18;;;2.70;99.90;;;;;;5046893;28;20409;-33
2022/03/31 06:00:40;;;;;;;13.27;10.52;;;2.70;99.90;;;;;;5054637;28;20139;-33
2022/03/31 06:03:07;;;;;;;11.63;10.10;;;2.70;99.90;;;;;;5054509;28;20049;-33
2022/03/31 06:05:34;;;;;;;11.75;10.52;;;2.80;99.90;;;;;;5052586;28;20088;-33
2022/03/31 06:08:01;;;;;;;11.60;9.88;;;2.80;99.90;;;;;;5034415;28;20152;-33
2022/03/31 06:10:27;;;;;;;12.38;10.65;;;2.80;99.90;;;;;;5034349;28;20059;-33
2022/03/31 06:12:55;;;;;;;17.40;11.32;;;2.80;99.90;;;;;;5034144;28;20390;-33
2022/03/31 06:15:22;;;;;;;13.18;10.52;;;2.80;99.90;;;;;;5033369;28;20544;-34
2022/03/31 06:17:49;;;;;;;15.70;11.07;;;2.80;99.90;;;;;;5033158;28;20053;-33
2022/03/31 06:20:15;;;;;;;13.98;11.85;;;2.80;99.90;;;;;;5039025;28;20084;-33
2022/03/31 06:22:42;;;;;;;14.82;12.20;;;2.80;99.90;;;;;;5053640;28;20136;-33
2022/03/31 06:25:10;;;;;;;15.57;12.10;;;2.80;99.90;;;;;;5052641;28;20507;-33
2022/03/31 06:27:38;;;;;;;15.00;12.68;;;2.80;99.90;;;;;;5052866;28;20049;-32
2022/03/31 06:30:06;;;;;;;14.25;12.50;;;2.80;99.90;;;;;;5053988;28;20052;-32
2022/03/31 06:32:33;;;;;;;16.88;13.23;;;2.90;99.90;;;;;;5052967;28;20052;-33
2022/03/31 06:35:00;;;;;;;15.90;12.88;;;2.90;99.90;;;;;;5053856;28;20053;-33
2022/03/31 06:37:27;;;;;;;15.18;12.38;;;3.00;99.90;;;;;;5053714;28;20060;-33
2022/03/31 06:39:54;;;;;;;14.00;11.88;;;3.00;99.90;;;;;;5053666;28;20057;-33
2022/03/31 06:42:21;;;;;;;13.48;11.38;;;3.00;99.90;;;;;;5053462;28;20408;-33
2022/03/31 06:44:47;;;;;;;14.30;12.05;;;3.10;99.90;;;;;;5052473;28;20485;-33
2022/03/31 06:47:15;;;;;;;13.18;11.15;;;3.10;99.90;;;;;;5052589;28;20048;-33
2022/03/31 06:49:42;;;;;;;12.45;10.80;;;3.10;99.90;;;;;;5053613;28;20053;-33
2022/03/31 06:52:09;;;;;;;13.32;11.30;;;3.20;99.90;;;;;;5053205;28;20055;-33
2022/03/31 06:54:35;;;;;;;11.80;10.00;;;3.20;99.90;;;;;;5053185;28;20057;-33
2022/03/31 06:57:02;;;;;;;12.40;11.07;;;3.20;99.90;;;;;;5052939;28;20412;-33
2022/03/31 06:59:31;;;;;;;12.00;10.18;;;3.30;99.90;;;;;;5053311;28;20499;-33
2022/03/31 07:01:58;;;;;;;11.65;9.77;;;3.40;99.90;;;;;;5053341;28;20084;-33
2022/03/31 07:04:26;;;;;;;11.85;10.13;;;3.40;99.90;;;;;;5053310;28;20135;-33
2022/03/31 07:06:52;;;;;;;12.20;9.82;;;3.40;99.90;;;;;;5052058;28;20068;-33
2022/03/31 07:09:19;;;;;;;10.13;8.95;;;3.40;99.90;;;;;;5052235;28;20049;-33
2022/03/31 07:11:46;;;;;;;10.45;9.07;;;3.40;99.90;;;;;;5052974;28;20055;-33
2022/03/31 07:14:12;;;;;;;10.70;9.13;;;3.40;99.90;;;;;;5053369;28;20049;-33
2022/03/31 07:16:39;;;;;;;9.77;8.50;;;3.40;99.90;;;;;;5052723;28;20397;-33
2022/03/31 07:19:07;;;;;;;10.13;8.93;;;3.50;99.90;;;;;;5053120;28;20052;-33
2022/03/31 07:21:35;;;;;;;11.15;8.68;;;3.50;99.90;;;;;;5051866;28;20045;-33
2022/03/31 07:24:02;;;;;;;9.48;8.48;;;3.50;99.90;;;;;;5052607;28;20136;-33
2022/03/31 07:26:29;;;;;;;9.98;8.85;;;3.40;99.90;;;;;;5052840;28;20090;-33
2022/03/31 07:28:55;;;;;;;9.30;8.30;;;3.50;99.90;;;;;;5053072;28;20045;-33
2022/03/31 07:31:23;;;;;;;10.05;8.98;;;3.50;99.90;;;;;;5053258;28;20045;-32
2022/03/31 07:33:50;;;;;;;11.70;10.02;;;3.40;99.90;;;;;;5052905;28;20048;-33
2022/03/31 07:36:17;;;;;;;11.57;10.35;;;3.40;99.90;;;;;;5052963;28;20501;-33
2022/03/31 07:38:46;;;;;;;12.93;11.02;;;3.40;99.90;;;;;;5052814;28;20489;-33
2022/03/31 07:41:13;;;;;;;13.60;10.60;;;3.40;99.90;;;;;;5052771;28;20057;-34
2022/03/31 07:43:39;;;;;;;11.25;9.68;;;3.40;99.90;;;;;;5051772;28;20468;-31
2022/03/31 07:46:06;;;;;;;13.93;11.57;;;3.40;99.90;;;;;;5052818;28;20055;-32
2022/03/31 07:48:33;;;;;;;14.82;11.73;;;3.40;99.90;;;;;;5052841;28;20049;-33
2022/03/31 07:50:59;;;;;;;15.43;12.85;;;3.50;99.90;;;;;;5052754;28;20057;-33
2022/03/31 07:53:26;;;;;;;14.32;11.80;;;3.50;99.90;;;;;;5052662;28;20059;-33
2022/03/31 07:55:54;;;;;;;15.30;12.38;;;3.50;99.90;;;;;;5051365;28;20110;-33
2022/03/31 07:58:21;;;;;;;13.65;11.85;;;3.60;99.90;;;;;;5052810;28;20044;-33
2022/03/31 08:00:50;;;;;;;13.70;11.95;;;3.60;99.90;;;;;;5051893;28;20136;-35
2022/03/31 08:03:17;;;;;;;14.05;12.55;;;3.60;99.90;;;;;;5051562;28;20475;-34
2022/03/31 08:05:44;;;;;;;16.17;12.20;;;3.60;99.90;;;;;;5052565;28;20096;-34
2022/03/31 08:08:11;;;;;;;16.58;12.23;;;3.70;99.90;;;;;;5052422;28;20055;-34
2022/03/31 08:10:38;;;;;;;15.82;12.40;;;3.70;99.90;;;;;;5052442;28;20049;-35
2022/03/31 08:13:06;;;;;;;13.88;11.98;;;3.70;99.90;;;;;;5051646;28;20064;-35
2022/03/31 08:15:33;;;;;;;14.45;12.27;;;3.70;99.90;;;;;;5052522;28;20497;-35
2022/03/31 08:18:00;;;;;;;13.77;11.77;;;3.70;99.90;;;;;;5052398;28;20052;-34
2022/03/31 08:20:26;;;;;;;13.27;11.90;;;3.60;99.90;;;;;;5052453;28;20095;-35
2022/03/31 08:22:53;;;;;;;12.02;10.63;;;3.60;99.90;;;;;;5052182;28;20415;-35
2022/03/31 08:25:20;;;;;;;14.18;11.80;;;3.60;99.90;;;;;;5051074;28;20055;-35
2022/03/31 08:27:47;;;;;;;13.77;11.43;;;3.60;99.90;;;;;;5052447;28;20053;-35
2022/03/31 08:30:18;;;;;;;12.00;10.70;;;3.60;99.90;;;;;;5052431;28;20052;-35
2022/03/31 08:32:46;;;;;;;12.27;10.67;;;3.50;99.90;;;;;;5051166;28;20061;-35
2022/03/31 08:35:13;;;;;;;13.68;10.82;;;3.60;99.90;;;;;;5052503;28;20294;-34
2022/03/31 08:37:41;;;;;;;11.48;10.27;;;3.50;99.90;;;;;;5055801;28;20057;-35
2022/03/31 08:40:11;;;;;;;11.35;10.02;;;3.50;99.90;;;;;;5054754;28;20131;-33
2022/03/31 08:42:38;;;;;;;10.48;9.38;;;3.50;99.90;;;;;;5056371;28;20045;-34
2022/03/31 08:45:06;;;;;;;12.55;9.93;;;3.50;99.90;;;;;;5056109;28;20053;-35
2022/03/31 08:47:34;;;;;;;12.07;9.80;;;3.50;99.90;;;;;;5056236;28;20152;-34
2022/03/31 08:50:01;;;;;;;11.70;9.38;;;3.50;99.90;;;;;;5056261;28;20048;-33
2022/03/31 08:52:28;;;;;;;10.13;9.10;;;3.50;99.90;;;;;;5055984;28;20061;-34
2022/03/31 08:54:54;;;;;;;10.77;9.68;;;3.40;99.90;;;;;;5056364;28;20053;-33
2022/03/31 08:57:21;;;;;;;9.80;8.40;;;3.40;99.90;;;;;;5056159;28;20049;-33
2022/03/31 08:59:48;;;;;;;9.98;8.98;;;3.40;99.90;;;;;;5055768;28;20136;-34
2022/03/31 09:02:25;;;;;;;8.55;7.57;;;3.30;99.90;;;;;;5054504;28;20095;-34
2022/03/31 09:05:03;;;;;;;10.23;8.82;;;3.40;99.90;;;;;;5051461;28;20537;-34
2022/03/31 09:07:30;;;;;;;9.13;8.13;;;3.40;99.90;;;;;;5035988;28;20133;-34
2022/03/31 09:09:57;;;;;;;8.82;7.93;;;3.30;99.90;;;;;;5035980;28;20049;-34
2022/03/31 09:12:26;;;;;;;7.90;6.75;;;3.30;99.90;;;;;;5035679;28;20059;-34
2022/03/31 09:14:53;;;;;;;8.95;7.55;;;3.30;99.90;;;;;;5035758;28;20410;-34
2022/03/31 09:17:20;;;;;;;8.65;7.75;;;3.20;99.90;;;;;;5035481;28;20045;-34
2022/03/31 09:19:47;;;;;;;9.93;7.93;;;3.20;99.90;;;;;;5035346;28;20049;-34
2022/03/31 09:22:15;;;;;;;8.00;7.10;;;3.10;99.90;;;;;;5035633;28;20055;-34
2022/03/31 09:24:41;;;;;;;9.75;7.00;;;3.10;99.90;;;;;;5035555;28;20075;-34
2022/03/31 09:27:08;;;;;;;6.00;5.40;;;3.10;99.90;;;;;;5035384;28;20050;-34
2022/03/31 09:29:35;;;;;;;5.18;4.68;;;3.10;99.90;;;;;;5045554;28;20041;-33
2022/03/31 09:32:08;;;;;;;5.70;5.10;;;3.00;99.90;;;;;;5054325;28;20499;-34
2022/03/31 09:34:39;;;;;;;7.00;5.30;;;3.00;99.90;;;;;;5054948;28;20052;-33
2022/03/31 09:37:06;;;;;;;5.90;5.10;;;2.90;99.90;;;;;;5055193;28;20053;-35
2022/03/31 09:39:34;;;;;;;5.07;4.57;;;2.80;99.90;;;;;;5055191;28;20044;-35
2022/03/31 09:42:00;;;;;;;6.88;5.40;;;2.80;99.90;;;;;;5055217;28;20141;-35
2022/03/31 09:44:28;;;;;;;6.25;5.13;;;2.80;99.90;;;;;;5070719;28;20048;-35
2022/03/31 09:46:55;;;;;;;5.63;4.95;;;2.70;99.90;;;;;;5070484;28;20053;-35
2022/03/31 09:49:22;;;;;;;7.72;5.63;;;2.60;99.90;;;;;;5054544;28;20040;-35
2022/03/31 09:51:51;;;;;;;25.88;17.10;;;2.60;99.90;;;;;;5055033;28;20051;-35
2022/03/31 09:54:18;;;;;;;35.75;17.13;;;2.60;99.90;;;;;;5054755;28;20060;-35
2022/03/31 09:56:47;;;;;;;24.95;14.10;;;2.60;99.90;;;;;;5054753;28;20049;-35
2022/03/31 09:59:14;;;;;;;20.90;11.95;;;2.60;99.90;;;;;;5054661;28;20045;-35
2022/03/31 10:01:41;;;;;;;11.52;7.07;;;2.60;99.90;;;;;;5053620;28;20055;-35
2022/03/31 10:04:08;;;;;;;9.23;6.90;;;2.60;99.90;;;;;;5070349;28;20110;-35
2022/03/31 10:06:35;;;;;;;9.15;7.10;;;2.60;99.90;;;;;;5070155;28;20048;-35
2022/03/31 10:09:02;;;;;;;13.25;8.32;;;2.70;99.90;;;;;;5054688;28;20049;-35
2022/03/31 10:11:29;;;;;;;5.63;5.03;;;2.60;99.90;;;;;;5054562;28;20055;-35
2022/03/31 10:14:07;;;;;;;11.02;7.93;;;2.70;99.90;;;;;;5054376;28;20496;-35
2022/03/31 10:16:38;;;;;;;31.67;15.48;;;2.70;99.90;;;;;;5054214;28;20060;-35
2022/03/31 10:19:04;;;;;;;6.75;5.45;;;2.70;99.90;;;;;;5054301;28;20098;-35
2022/03/31 10:21:32;;;;;;;5.35;4.70;;;2.70;99.90;;;;;;5053215;28;20061;-35
2022/03/31 10:26:43;;;;;;;7.35;5.78;;;2.70;99.90;;;;;;5054188;28;20084;-35
2022/03/31 10:29:15;;;;;;;5.70;5.15;;;2.70;99.90;;;;;;5054008;28;20088;-35
2022/03/31 10:31:42;;;;;;;7.13;6.13;;;2.80;99.90;;;;;;5053207;28;20053;-34
2022/03/31 10:34:10;;;;;;;7.07;6.18;;;2.80;99.90;;;;;;5054167;28;20055;-34
2022/03/31 10:36:39;;;;;;;6.55;5.85;;;2.80;99.90;;;;;;5053245;28;20059;-34
2022/03/31 10:39:06;;;;;;;6.78;5.60;;;2.90;99.90;;;;;;5053855;28;20049;-35
2022/03/31 10:41:34;;;;;;;7.55;6.47;;;2.90;99.90;;;;;;5053931;28;20163;-34
2022/03/31 10:44:03;;;;;;;7.72;6.90;;;2.90;99.90;;;;;;5053672;28;20063;-35
2022/03/31 10:46:32;;;;;;;6.70;5.88;;;2.90;99.90;;;;;;5053931;28;20091;-35
2022/03/31 10:48:59;;;;;;;8.25;6.13;;;2.90;99.90;;;;;;5053716;28;20464;-35
2022/03/31 10:51:35;;;;;;;8.55;6.05;;;2.80;99.90;;;;;;5069464;28;20049;-35
2022/03/31 10:54:01;;;;;;;6.47;5.50;;;2.80;99.90;;;;;;5053804;28;20059;-35
2022/03/31 10:56:29;;;;;;;7.65;6.60;;;2.80;99.90;;;;;;5053515;28;20140;-35
2022/03/31 10:58:57;;;;;;;6.65;5.97;;;2.80;99.90;;;;;;5068583;28;20041;-33
2022/03/31 11:01:26;;;;;;;7.15;6.22;;;2.80;99.90;;;;;;5053764;28;20092;-33
2022/03/31 11:04:01;;;;;;;6.07;5.47;;;2.80;99.90;;;;;;5053546;28;20136;-33
2022/03/31 11:06:28;;;;;;;6.38;5.38;;;2.80;99.90;;;;;;5053479;28;20056;-33
2022/03/31 11:08:55;;;;;;;5.50;4.70;;;2.80;99.90;;;;;;5053285;28;20049;-33
2022/03/31 11:11:23;;;;;;;5.97;5.18;;;2.70;99.90;;;;;;5053117;28;20049;-33
2022/03/31 11:13:50;;;;;;;6.25;5.50;;;2.60;99.90;;;;;;5053438;28;20045;-34
2022/03/31 11:16:16;;;;;;;7.28;4.93;;;2.60;99.90;;;;;;5052709;28;20056;-34
2022/03/31 11:18:43;;;;;;;5.57;4.97;;;2.60;99.90;;;;;;5052015;28;20408;-34
2022/03/31 11:21:11;;;;;;;5.28;4.78;;;2.50;99.90;;;;;;5053243;28;20187;-35
2022/03/31 11:23:46;;;;;;;5.05;4.55;;;2.50;99.90;;;;;;5053017;28;20063;-34
2022/03/31 11:26:15;;;;;;;7.97;5.25;;;2.30;99.90;;;;;;5053586;28;20128;-33
2022/03/31 11:28:42;;;;;;;5.93;4.90;;;2.30;99.90;;;;;;5053236;28;20041;-33
2022/03/31 11:31:13;;;;;;;5.53;5.03;;;2.30;99.90;;;;;;5047950;28;20053;-32
2022/03/31 11:33:40;;;;;;;5.45;4.95;;;2.20;99.90;;;;;;5048959;28;20077;-32
2022/03/31 11:36:07;;;;;;;8.35;5.60;;;2.10;99.90;;;;;;5048360;28;20065;-33
2022/03/31 11:38:35;;;;;;;7.35;5.47;;;2.10;99.90;;;;;;5052620;28;20049;-33
2022/03/31 11:41:01;;;;;;;6.78;5.55;;;2.10;99.90;;;;;;5053141;28;20041;-33
2022/03/31 11:43:29;;;;;;;7.75;5.47;;;2.00;99.90;;;;;;5052496;28;20493;-33
2022/03/31 11:45:56;;;;;;;8.65;6.70;;;2.00;99.90;;;;;;5048240;28;20053;-33
2022/03/31 11:48:23;;;;;;;8.65;6.90;;;2.00;99.90;;;;;;5048998;28;20053;-33
2022/03/31 11:50:51;;;;;;;8.30;6.57;;;2.00;99.90;;;;;;5052747;28;20123;-33
2022/03/31 11:53:19;;;;;;;8.68;6.55;;;2.00;99.90;;;;;;5052525;28;20056;-34
2022/03/31 11:55:57;;;;;;;9.38;7.55;;;1.90;99.90;;;;;;5052691;28;20052;-33
2022/03/31 11:58:24;;;;;;;9.82;7.80;;;1.90;99.90;;;;;;5052896;28;20132;-34
2022/03/31 12:00:51;;;;;;;8.77;7.38;;;1.90;99.90;;;;;;5068033;28;20053;-34
2022/03/31 12:03:18;;;;;;;9.40;7.70;;;1.90;99.90;;;;;;5051603;28;20080;-34
2022/03/31 12:05:45;;;;;;;9.43;7.47;;;2.00;99.90;;;;;;5052360;28;20048;-34
2022/03/31 12:08:12;;;;;;;10.10;7.72;;;2.00;99.90;;;;;;5051767;28;20047;-34
2022/03/31 12:10:38;;;;;;;9.75;7.90;;;1.90;99.90;;;;;;5053601;28;20139;-34
2022/03/31 12:13:07;;;;;;;8.55;7.45;;;2.00;99.90;;;;;;5055933;28;20049;-33
2022/03/31 12:15:33;;;;;;;10.40;8.00;;;2.00;99.90;;;;;;5056943;28;20396;-33
2022/03/31 12:18:02;;;;;;;8.95;7.43;;;1.90;99.90;;;;;;5055285;28;20057;-33
2022/03/31 12:20:29;;;;;;;9.73;8.13;;;2.00;99.90;;;;;;5056358;28;20140;-33
2022/03/31 12:22:56;;;;;;;10.02;7.97;;;1.90;99.90;;;;;;5055864;28;20451;-33
2022/03/31 12:25:30;;;;;;;10.40;8.05;;;1.90;99.90;;;;;;5056592;28;20048;-33
2022/03/31 12:27:59;;;;;;;10.93;8.43;;;1.90;99.90;;;;;;5055324;28;20055;-33
2022/03/31 12:30:37;;;;;;;9.88;8.38;;;2.00;99.90;;;;;;5056487;28;20375;-34
2022/03/31 12:33:04;;;;;;;9.20;7.82;;;1.90;99.90;;;;;;5056169;28;20055;-34
2022/03/31 12:35:33;;;;;;;12.35;9.23;;;1.90;99.90;;;;;;5056191;28;20481;-33
2022/03/31 12:37:59;;;;;;;9.27;8.05;;;1.90;99.90;;;;;;5056316;28;20045;-33
2022/03/31 12:40:26;;;;;;;9.65;7.97;;;1.90;99.90;;;;;;5049533;28;20049;-34
2022/03/31 12:42:53;;;;;;;13.32;8.43;;;1.90;99.90;;;;;;5052382;28;20057;-33
2022/03/31 12:45:21;;;;;;;11.70;9.20;;;2.00;99.90;;;;;;5049295;28;20051;-34
2022/03/31 12:47:49;;;;;;;9.68;8.43;;;2.00;99.90;;;;;;5052977;28;20098;-33
2022/03/31 12:50:17;;;;;;;10.68;9.05;;;2.00;99.90;;;;;;5055044;28;20045;-33
2022/03/31 12:52:53;;;;;;;11.32;9.43;;;2.00;99.90;;;;;;5054806;28;20064;-33
2022/03/31 12:55:21;;;;;;;12.88;10.20;;;2.10;99.90;;;;;;5050816;28;20052;-34
2022/03/31 12:57:55;;;;;;;14.10;11.10;;;2.10;99.90;;;;;;5048686;28;20048;-33
2022/03/31 13:00:22;;;;;;;12.48;10.30;;;2.10;99.90;;;;;;5054167;28;20049;-33